TimePST,TemperatureF,Dew PointF,Humidity,Sea Level PressureIn,VisibilityMPH,Wind Direction,Wind SpeedMPH,Gust SpeedMPH,PrecipitationIn,Events,Conditions,WindDirDegrees,DateUTC
1:56 AM,45.0,42.1,90,30.19,10.0,South,4.6,-,N/A,,Clear,170,1999-01-01 09:56:00
2:56 AM,44.1,41.0,89,30.20,10.0,SSW,4.6,-,N/A,,Partly Cloudy,210,1999-01-01 10:56:00
3:56 AM,43.0,41.0,93,30.19,10.0,SSW,3.5,-,N/A,,Clear,200,1999-01-01 11:56:00
4:56 AM,39.9,39.0,97,30.19,10.0,West,6.9,-,N/A,,Scattered Clouds,260,1999-01-01 12:56:00
5:56 AM,39.9,39.0,97,30.19,10.0,South,4.6,-,N/A,,Scattered Clouds,180,1999-01-01 13:56:00
6:56 AM,43.0,39.9,89,30.21,10.0,Calm,Calm,-,N/A,,Scattered Clouds,0,1999-01-01 14:56:00
7:56 AM,41.0,37.0,86,30.22,10.0,Calm,Calm,-,N/A,,Scattered Clouds,0,1999-01-01 15:56:00
8:56 AM,46.0,41.0,83,30.23,10.0,Calm,Calm,-,N/A,,Mostly Cloudy,0,1999-01-01 16:56:00
9:56 AM,48.0,44.1,86,30.25,10.0,Calm,Calm,-,N/A,,Mostly Cloudy,0,1999-01-01 17:56:00
10:56 AM,48.9,45.0,86,30.24,10.0,NNE,3.5,-,N/A,,Scattered Clouds,30,1999-01-01 18:56:00
11:56 AM,50.0,45.0,83,30.21,10.0,NE,3.5,-,N/A,,Scattered Clouds,40,1999-01-01 19:56:00
12:56 PM,51.1,46.0,83,30.19,10.0,NE,3.5,-,N/A,,Scattered Clouds,50,1999-01-01 20:56:00
1:56 PM,52.0,46.9,83,30.16,10.0,Calm,Calm,-,N/A,,Partly Cloudy,0,1999-01-01 21:56:00
2:56 PM,57.0,39.9,53,30.16,10.0,Calm,Calm,-,N/A,,Partly Cloudy,0,1999-01-01 22:56:00
3:56 PM,57.0,37.0,47,30.17,10.0,NNW,6.9,-,N/A,,Partly Cloudy,330,1999-01-01 23:56:00
4:56 PM,52.0,44.1,74,30.17,10.0,North,6.9,-,N/A,,Clear,350,1999-01-02 00:56:00
5:56 PM,52.0,42.1,69,30.17,10.0,Variable,3.5,-,N/A,,Clear,0,1999-01-02 01:56:00
6:56 PM,51.1,37.0,59,30.19,10.0,West,3.5,-,N/A,,Clear,270,1999-01-02 02:56:00
7:56 PM,51.1,37.9,61,30.19,10.0,SSW,4.6,-,N/A,,Clear,200,1999-01-02 03:56:00
8:56 PM,48.0,37.0,66,30.19,10.0,SSW,4.6,-,N/A,,Clear,200,1999-01-02 04:56:00
9:56 PM,48.9,36.0,61,30.21,10.0,WSW,4.6,-,N/A,,Clear,250,1999-01-02 05:56:00
10:56 PM,46.0,39.0,76,30.21,10.0,South,3.5,-,N/A,,Clear,170,1999-01-02 06:56:00
11:56 PM,44.1,39.0,82,30.21,10.0,ESE,5.8,-,N/A,,Clear,120,1999-01-02 07:56:00